createdAt,value
2023-05-09T00:02:04.538Z,99646.44
2023-05-09T00:08:07.584Z,99645.88
2023-05-09T00:15:05.074Z,99646.67
2023-05-09T00:21:29.060Z,99638.79
2023-05-09T00:28:03.408Z,99638.89
2023-05-09T00:34:25.194Z,99643.24
2023-05-09T00:40:49.142Z,99639.28
2023-05-09T00:47:12.989Z,99628.73
2023-05-09T00:53:36.907Z,99618.52
2023-05-09T00:59:04.073Z,99613.88
2023-05-09T01:04:25.057Z,99615.20
2023-05-09T01:10:20.290Z,99609.60
2023-05-09T01:15:56.426Z,99604.50
2023-05-09T01:22:36.256Z,99599.20
2023-05-09T01:29:23.800Z,99599.81
2023-05-09T01:35:54.977Z,99599.56
2023-05-09T01:42:19.608Z,99595.71
2023-05-09T01:48:41.878Z,99593.79
2023-05-09T01:55:01.134Z,99592.44
2023-05-09T02:01:28.619Z,99583.60
2023-05-09T02:08:29.511Z,99585.88
2023-05-09T02:15:41.532Z,99587.81
2023-05-09T02:21:42.298Z,99583.23
2023-05-09T02:27:24.009Z,99578.80
2023-05-09T02:32:45.992Z,99576.77
2023-05-09T02:38:15.173Z,99571.52
2023-05-09T02:44:37.019Z,99569.05
2023-05-09T02:50:45.351Z,99570.12
2023-05-09T02:56:10.442Z,99575.28
2023-05-09T03:02:37.037Z,99573.23
2023-05-09T03:09:19.695Z,99571.56
2023-05-09T03:16:04.760Z,99566.36
2023-05-09T03:29:52.819Z,99572.13
2023-05-09T03:36:14.370Z,99569.41
2023-05-09T03:41:37.238Z,99576.55
2023-05-09T03:46:40.620Z,99579.18
2023-05-09T03:52:42.428Z,99579.35
2023-05-09T03:59:03.788Z,99582.02
2023-05-09T04:05:26.166Z,99571.36
2023-05-09T04:11:47.583Z,99572.73
2023-05-09T04:18:20.767Z,99575.49
2023-05-09T04:23:43.909Z,99573.66
2023-05-09T04:28:46.438Z,99565.65
2023-05-09T04:34:28.394Z,99558.16
2023-05-09T04:41:22.106Z,99553.27
2023-05-09T04:48:26.754Z,99552.23
2023-05-09T04:55:31.632Z,99561.75
2023-05-09T05:01:55.559Z,99559.33
2023-05-09T05:08:59.225Z,99547.19
2023-05-09T05:16:02.997Z,99553.34
2023-05-09T05:22:49.913Z,99551.86
2023-05-09T05:38:47.832Z,99546.36
2023-05-09T05:45:41.152Z,99536.33
2023-05-09T05:52:44.822Z,99526.86
2023-05-09T05:59:48.660Z,99528.33
2023-05-09T06:06:35.935Z,99526.70
2023-05-09T06:13:33.058Z,99527.23
2023-05-09T06:20:38.264Z,99523.16
2023-05-09T06:27:34.060Z,99519.34
2023-05-09T06:34:37.445Z,99511.52
2023-05-09T06:41:41.092Z,99505.88
2023-05-09T06:48:44.817Z,99497.54
2023-05-09T06:55:48.624Z,99479.53
2023-05-09T07:03:12.978Z,99488.79
2023-05-09T07:10:16.487Z,99489.30
2023-05-09T07:16:37.589Z,99493.06
2023-05-09T07:23:21.559Z,99476.30
2023-05-09T07:30:24.012Z,99475.95
2023-05-09T07:37:04.070Z,99465.25
2023-05-09T07:44:08.041Z,99460.20
2023-05-09T07:51:11.731Z,99449.91
2023-05-09T07:57:47.720Z,99445.83
2023-05-09T08:04:49.934Z,99442.36
2023-05-09T08:11:33.051Z,99438.75
2023-05-09T08:18:37.123Z,99424.02
2023-05-09T08:25:04.085Z,99435.23
2023-05-09T08:50:22.096Z,99408.29
2023-05-09T08:57:25.852Z,99418.70
2023-05-09T09:04:12.169Z,99395.02
2023-05-09T09:10:47.253Z,99411.48
2023-05-09T09:17:26.765Z,99418.05
2023-05-09T09:24:21.811Z,99400.71
2023-05-09T09:31:01.434Z,99404.81
2023-05-09T09:37:50.256Z,99398.81
2023-05-09T09:44:53.982Z,99383.98
2023-05-09T09:51:50.382Z,99399.13
2023-05-09T09:58:56.645Z,99392.77
2023-05-09T10:05:52.920Z,99375.73
2023-05-09T10:12:21.676Z,99372.34
2023-05-09T10:19:25.014Z,99368.85
2023-05-09T10:26:41.478Z,99376.80
2023-05-09T10:33:54.127Z,99370.58
2023-05-09T10:41:00.531Z,99355.05
2023-05-09T10:48:04.133Z,99358.48
2023-05-09T10:55:08.192Z,99351.31
2023-05-09T11:02:09.518Z,99334.85
2023-05-09T11:09:21.711Z,99318.77
2023-05-09T11:15:29.602Z,99328.89
2023-05-09T11:21:33.298Z,99322.09
2023-05-09T11:28:04.953Z,99317.86
2023-05-09T11:34:31.281Z,99313.31
2023-05-09T11:41:24.605Z,99309.90
2023-05-09T11:47:31.438Z,99284.21
2023-05-09T11:53:46.824Z,99281.53
2023-05-09T12:00:10.969Z,99280.66
2023-05-09T12:06:20.468Z,99265.65
2023-05-09T12:12:11.990Z,99246.56
2023-05-09T12:19:03.387Z,99239.67
2023-05-09T12:25:23.310Z,99240.40
2023-05-09T12:32:02.429Z,99231.92
2023-05-09T12:39:07.282Z,99216.41
2023-05-09T12:45:46.851Z,99208.20
2023-05-09T12:58:39.042Z,99192.96
2023-05-09T13:04:40.405Z,99177.67
2023-05-09T13:11:51.406Z,99178.71
2023-05-09T13:17:53.418Z,99176.51
2023-05-09T13:24:33.890Z,99167.58
2023-05-09T13:30:40.746Z,99162.94
2023-05-09T13:37:07.398Z,99150.98
2023-05-09T13:43:42.896Z,99147.77
2023-05-09T13:49:45.954Z,99145.39
2023-05-09T13:55:59.087Z,99137.88
2023-05-09T14:02:18.972Z,99123.18
2023-05-09T14:09:15.521Z,99119.70
2023-05-09T14:15:42.698Z,99110.11
2023-05-09T14:22:21.403Z,99098.73
2023-05-09T14:29:24.673Z,99096.45
2023-05-09T14:36:39.778Z,99089.59
2023-05-09T14:43:42.801Z,99089.86
2023-05-09T14:50:28.080Z,99081.66
2023-05-09T14:57:11.628Z,99079.91
2023-05-09T15:03:53.125Z,99067.61
2023-05-09T15:09:42.312Z,99055.16
2023-05-09T15:16:01.098Z,99052.36
2023-05-09T15:22:44.556Z,99030.83
2023-05-09T15:29:30.013Z,99034.93
2023-05-09T15:36:07.905Z,99020.55
2023-05-09T15:43:10.538Z,99028.63
2023-05-09T15:50:13.247Z,99028.60
2023-05-09T15:57:18.327Z,99022.43
2023-05-09T16:03:49.057Z,99012.75
2023-05-09T16:10:23.736Z,98999.91
2023-05-09T16:15:59.875Z,99001.41
2023-05-09T16:22:47.436Z,98995.80
2023-05-09T16:29:51.439Z,98992.46
2023-05-09T16:36:55.056Z,98990.91
2023-05-09T16:43:58.774Z,98977.14
2023-05-09T16:50:30.048Z,98973.14
2023-05-09T16:57:26.167Z,98960.45
2023-05-09T17:04:01.347Z,98956.88
2023-05-09T17:14:12.130Z,98946.07
2023-05-09T17:20:38.622Z,98943.68
2023-05-09T17:27:02.703Z,98933.82
2023-05-09T17:33:26.267Z,98935.75
2023-05-09T17:39:14.797Z,98931.67
2023-05-09T17:44:18.660Z,98931.92
2023-05-09T17:50:19.736Z,98928.23
2023-05-09T17:56:40.860Z,98932.36
2023-05-09T18:03:02.029Z,98933.56
2023-05-09T18:08:31.195Z,98934.52
2023-05-09T18:13:35.524Z,98926.17
2023-05-09T18:19:36.778Z,98926.27
2023-05-09T18:25:58.068Z,98920.90
2023-05-09T18:31:21.894Z,98922.45
2023-05-09T18:36:23.591Z,98926.46
2023-05-09T18:41:25.855Z,98923.70
2023-05-09T18:46:27.390Z,98923.27
2023-05-09T18:52:12.660Z,98925.61
2023-05-09T18:58:09.872Z,98931.13
2023-05-09T19:04:24.627Z,98927.46
2023-05-09T19:17:08.661Z,98922.83
2023-05-09T19:23:35.277Z,98920.80
2023-05-09T19:30:38.273Z,98917.59
2023-05-09T19:37:41.091Z,98913.99
2023-05-09T19:44:09.048Z,98910.14
2023-05-09T19:50:26.165Z,98916.60
2023-05-09T19:56:28.837Z,98911.15
2023-05-09T20:01:30.785Z,98911.92
2023-05-09T20:06:32.256Z,98912.09
2023-05-09T20:11:33.700Z,98910.50
2023-05-09T20:16:35.788Z,98911.31
2023-05-09T20:21:37.337Z,98909.25
2023-05-09T20:26:38.786Z,98912.67
2023-05-09T20:31:41.123Z,98902.75
2023-05-09T20:37:42.456Z,98911.25
2023-05-09T20:44:13.671Z,98912.20
2023-05-09T20:50:34.614Z,98908.20
2023-05-09T20:57:05.614Z,98915.70
2023-05-09T21:03:26.643Z,98905.03
2023-05-09T21:09:47.719Z,98906.55
2023-05-09T21:15:29.189Z,98904.01
2023-05-09T21:21:30.275Z,98901.23
2023-05-09T21:27:51.277Z,98899.16
2023-05-09T21:33:12.512Z,98893.02
2023-05-09T21:38:13.790Z,98902.14
2023-05-09T21:44:15.488Z,98892.73
2023-05-09T21:50:56.572Z,98898.34
2023-05-09T21:56:17.799Z,98893.60
2023-05-09T22:01:19.571Z,98896.18
2023-05-09T22:06:21.142Z,98897.02
2023-05-09T22:11:22.632Z,98893.23
2023-05-09T22:16:24.028Z,98888.41
2023-05-09T22:21:25.572Z,98888.58
2023-05-09T22:26:26.753Z,98881.40
2023-05-09T22:31:28.229Z,98881.02
2023-05-09T22:36:29.509Z,98878.13
2023-05-09T22:42:30.570Z,98882.95
2023-05-09T22:47:52.063Z,98875.73
2023-05-09T22:52:53.574Z,98876.40
2023-05-09T22:57:55.012Z,98875.77
2023-05-09T23:02:56.406Z,98875.76
2023-05-09T23:08:21.495Z,98873.33
2023-05-09T23:14:42.253Z,98870.05
2023-05-09T23:21:03.449Z,98867.20
2023-05-09T23:27:24.498Z,98862.63
2023-05-09T23:32:46.068Z,98859.05
2023-05-09T23:37:49.493Z,98856.75
2023-05-09T23:42:51.305Z,98852.77
2023-05-09T23:47:53.731Z,98850.03
2023-05-09T23:52:55.158Z,98848.11
2023-05-09T23:57:56.443Z,98841.61
